createdAt,value
2023-02-12T00:00:01.004Z,6.2
2023-02-12T00:01:04.424Z,6.2
2023-02-12T00:02:01.395Z,6.2
2023-02-12T00:03:02.612Z,6.2
2023-02-12T00:04:02.115Z,6.2
2023-02-12T00:05:01.834Z,6.2
2023-02-12T00:06:01.975Z,6.1
2023-02-12T00:07:01.056Z,6.2
2023-02-12T00:08:01.164Z,6.2
2023-02-12T00:09:01.074Z,6.2
2023-02-12T00:10:01.461Z,6.2
2023-02-12T00:11:01.096Z,6.2
2023-02-12T00:12:01.105Z,6.2
2023-02-12T00:13:01.310Z,6.2
2023-02-12T00:14:01.108Z,6.2
2023-02-12T00:15:01.123Z,6.2
2023-02-12T00:16:01.178Z,6.2
2023-02-12T00:17:01.123Z,6.2
2023-02-12T00:18:01.131Z,6.2
2023-02-12T00:19:01.703Z,6.2
2023-02-12T00:20:01.125Z,6.1
2023-02-12T00:21:01.659Z,6.1
2023-02-12T00:22:01.205Z,6.1
2023-02-12T00:23:01.327Z,6.2
2023-02-12T00:24:01.970Z,6.2
2023-02-12T00:25:02.554Z,6.2
2023-02-12T00:26:01.464Z,6.1
2023-02-12T00:27:01.081Z,6.1
2023-02-12T00:28:01.170Z,6.2
2023-02-12T00:29:01.097Z,6.2
2023-02-12T00:30:01.102Z,6.2
2023-02-12T00:31:01.198Z,6.1
2023-02-12T00:32:01.167Z,6.2
2023-02-12T00:33:01.819Z,6.1
2023-02-12T00:34:01.160Z,6.2
2023-02-12T00:35:01.539Z,6.1
2023-02-12T00:36:01.057Z,6.2
2023-02-12T00:37:01.060Z,6.1
2023-02-12T00:38:01.152Z,6.2
2023-02-12T00:39:01.163Z,6.2
2023-02-12T00:40:01.793Z,6.2
2023-02-12T00:41:01.794Z,6.2
2023-02-12T00:42:01.439Z,6.2
2023-02-12T00:43:02.198Z,6.1
2023-02-12T00:44:02.314Z,6.2
2023-02-12T00:45:01.103Z,6.2
2023-02-12T00:46:01.139Z,6.2
2023-02-12T00:47:01.106Z,6.1
2023-02-12T00:48:01.114Z,6.1
2023-02-12T00:49:01.502Z,6.2
2023-02-12T00:50:01.189Z,6.1
2023-02-12T00:51:02.780Z,6.1
2023-02-12T00:52:06.888Z,6.1
2023-02-12T00:53:05.110Z,6.2
2023-02-12T00:54:01.340Z,6.1
2023-02-12T00:55:01.144Z,6.1
2023-02-12T00:56:05.558Z,6.1
2023-02-12T00:57:01.186Z,6.1
2023-02-12T00:58:01.561Z,6.1
2023-02-12T00:59:01.128Z,6.1
2023-02-12T01:00:01.092Z,6.1
2023-02-12T01:01:09.595Z,6.1
2023-02-12T01:02:02.512Z,6.1
2023-02-12T01:03:01.312Z,6.1
2023-02-12T01:04:04.515Z,6.1
2023-02-12T01:05:02.356Z,6.1
2023-02-12T01:06:12.680Z,6.1
2023-02-12T01:07:01.566Z,6.1
2023-02-12T01:08:01.875Z,6.1
2023-02-12T01:09:03.172Z,6.1
2023-02-12T01:10:01.162Z,6.1
2023-02-12T01:11:14.631Z,6.1
2023-02-12T01:12:01.744Z,6.1
2023-02-12T01:13:01.754Z,6.1
2023-02-12T01:14:02.132Z,6.1
2023-02-12T01:15:02.303Z,6.1
2023-02-12T01:16:01.247Z,6.1
2023-02-12T01:17:01.922Z,6.1
2023-02-12T01:18:01.875Z,6.1
2023-02-12T01:19:01.059Z,6.1
2023-02-12T01:20:03.350Z,6.1
2023-02-12T01:21:01.183Z,6.1
2023-02-12T01:22:01.199Z,6.1
2023-02-12T01:23:01.209Z,6.1
2023-02-12T01:24:01.550Z,6.1
2023-02-12T01:25:02.225Z,6.1
2023-02-12T01:26:01.183Z,6.1
2023-02-12T01:27:01.168Z,6.1
2023-02-12T01:28:01.107Z,6.1
2023-02-12T01:29:01.191Z,6.1
2023-02-12T01:30:02.657Z,6.1
2023-02-12T01:31:02.189Z,6.1
2023-02-12T01:32:01.289Z,6.1
2023-02-12T01:33:01.657Z,6.1
2023-02-12T01:34:01.490Z,6.1
2023-02-12T01:35:02.169Z,6.1
2023-02-12T01:36:01.130Z,6.1
2023-02-12T01:37:01.142Z,6.1
2023-02-12T01:38:01.184Z,6.1
2023-02-12T01:39:01.138Z,6.1
2023-02-12T01:40:01.158Z,6.1
2023-02-12T01:41:02.394Z,6.1
2023-02-12T01:42:01.549Z,6.1
2023-02-12T01:43:01.273Z,6.1
2023-02-12T01:44:01.166Z,6.1
2023-02-12T01:45:01.067Z,6.1
2023-02-12T01:46:01.071Z,6.1
2023-02-12T01:47:01.083Z,6.1
2023-02-12T01:48:01.106Z,6.1
2023-02-12T01:49:01.088Z,6.1
2023-02-12T01:50:01.270Z,6.1
2023-02-12T01:51:01.306Z,6.1
2023-02-12T01:52:01.120Z,6.1
2023-02-12T01:53:01.085Z,6.1
2023-02-12T01:54:01.183Z,6.1
2023-02-12T01:55:01.640Z,6.1
2023-02-12T01:56:01.878Z,6.1
2023-02-12T01:57:01.578Z,6.1
2023-02-12T01:58:02.627Z,6.1
2023-02-12T01:59:01.449Z,6.1
2023-02-12T02:00:02.373Z,6.1
2023-02-12T02:01:01.076Z,6.1
2023-02-12T02:02:01.311Z,6.1
2023-02-12T02:03:02.572Z,6.1
2023-02-12T02:04:02.005Z,6
2023-02-12T02:05:01.169Z,6
2023-02-12T02:06:01.097Z,6.1
2023-02-12T02:07:01.513Z,6
2023-02-12T02:08:01.248Z,6.1
2023-02-12T02:09:04.405Z,6.1
2023-02-12T02:10:02.160Z,6
2023-02-12T02:11:02.286Z,6.1
2023-02-12T02:12:01.160Z,6
2023-02-12T02:13:01.171Z,6
2023-02-12T02:14:00.759Z,6.1
2023-02-12T02:15:00.561Z,6
2023-02-12T02:16:00.421Z,6
2023-02-12T02:17:00.264Z,6
2023-02-12T02:18:00.039Z,6
2023-02-12T02:18:59.844Z,6.1
2023-02-12T02:20:01.862Z,6
2023-02-12T02:21:01.773Z,6.1
2023-02-12T02:22:01.113Z,6.1
2023-02-12T02:23:01.078Z,6.1
2023-02-12T02:24:01.109Z,6
2023-02-12T02:25:01.347Z,6
2023-02-12T02:26:01.455Z,6.1
2023-02-12T02:27:02.967Z,6
2023-02-12T02:28:03.059Z,6
2023-02-12T02:29:01.203Z,6
2023-02-12T02:30:02.448Z,6
2023-02-12T02:31:01.224Z,6
2023-02-12T02:32:02.025Z,6
2023-02-12T02:33:01.168Z,6
2023-02-12T02:34:01.810Z,6
2023-02-12T02:35:04.310Z,6
2023-02-12T02:36:01.485Z,6
2023-02-12T02:37:02.589Z,6
2023-02-12T02:38:01.115Z,6
2023-02-12T02:39:00.693Z,6
2023-02-12T02:40:00.395Z,6
2023-02-12T02:41:00.095Z,6
2023-02-12T02:42:03.803Z,6
2023-02-12T02:43:01.118Z,6
2023-02-12T02:44:01.122Z,6
2023-02-12T02:45:01.522Z,6
2023-02-12T02:46:01.166Z,6
2023-02-12T02:47:07.888Z,6
2023-02-12T02:48:01.172Z,6
2023-02-12T02:49:01.063Z,6
2023-02-12T02:50:01.413Z,6
2023-02-12T02:51:01.084Z,6
2023-02-12T02:52:10.456Z,6
2023-02-12T02:53:01.463Z,6
2023-02-12T02:54:02.097Z,6
2023-02-12T02:55:01.056Z,6
2023-02-12T02:56:01.473Z,6
2023-02-12T02:57:14.221Z,6
2023-02-12T02:58:01.144Z,6
2023-02-12T02:59:01.131Z,6
2023-02-12T03:00:01.142Z,6
2023-02-12T03:01:01.225Z,6
2023-02-12T03:02:16.229Z,6
2023-02-12T03:03:02.150Z,6
2023-02-12T03:04:01.285Z,6
2023-02-12T03:05:01.155Z,6
2023-02-12T03:06:01.069Z,6
2023-02-12T03:07:01.089Z,6
2023-02-12T03:08:01.170Z,6
2023-02-12T03:09:01.079Z,6
2023-02-12T03:10:01.083Z,6
2023-02-12T03:11:01.083Z,6
2023-02-12T03:12:01.123Z,6
2023-02-12T03:13:01.480Z,6
2023-02-12T03:14:01.212Z,6
2023-02-12T03:15:01.768Z,6
2023-02-12T03:16:01.568Z,6
2023-02-12T03:17:01.153Z,6
2023-02-12T03:18:01.158Z,6
2023-02-12T03:19:01.151Z,6
2023-02-12T03:20:01.378Z,6
2023-02-12T03:21:01.476Z,6
2023-02-12T03:22:01.137Z,6
2023-02-12T03:23:01.072Z,6
2023-02-12T03:24:01.807Z,6
2023-02-12T03:25:01.854Z,6
2023-02-12T03:26:01.395Z,6
2023-02-12T03:27:01.120Z,6
2023-02-12T03:28:01.466Z,6
2023-02-12T03:29:01.222Z,6
2023-02-12T03:30:01.114Z,6
2023-02-12T03:31:01.210Z,6
2023-02-12T03:32:01.165Z,6
2023-02-12T03:33:01.141Z,6
2023-02-12T03:34:01.156Z,6
2023-02-12T03:35:01.154Z,6
2023-02-12T03:36:01.144Z,6
2023-02-12T03:37:01.157Z,6
2023-02-12T03:38:01.583Z,6
2023-02-12T03:39:00.847Z,6
2023-02-12T03:40:00.469Z,6
2023-02-12T03:41:00.068Z,6
2023-02-12T03:41:59.834Z,6
2023-02-12T03:43:02.646Z,6
2023-02-12T03:44:01.850Z,6
2023-02-12T03:45:01.794Z,6
2023-02-12T03:46:02.070Z,6
2023-02-12T03:47:01.106Z,6
2023-02-12T03:48:01.171Z,6
2023-02-12T03:49:01.052Z,6
2023-02-12T03:50:01.157Z,6
2023-02-12T03:51:01.442Z,6
2023-02-12T03:52:01.169Z,6
2023-02-12T03:53:01.853Z,6
2023-02-12T03:54:01.327Z,6
2023-02-12T03:55:01.302Z,6
2023-02-12T03:56:01.285Z,6
2023-02-12T03:57:02.505Z,6
2023-02-12T03:58:01.118Z,6
2023-02-12T03:59:01.110Z,6
2023-02-12T04:00:01.115Z,6
2023-02-12T04:01:01.137Z,6
2023-02-12T04:02:01.210Z,6
2023-02-12T04:03:01.337Z,6
2023-02-12T04:04:01.952Z,6
2023-02-12T04:05:01.001Z,6
2023-02-12T04:06:01.170Z,6
2023-02-12T04:07:01.141Z,6
2023-02-12T04:08:01.343Z,6
2023-02-12T04:09:01.284Z,6
2023-02-12T04:10:02.608Z,6
2023-02-12T04:11:02.198Z,6
2023-02-12T04:12:01.103Z,6
2023-02-12T04:13:00.857Z,6
2023-02-12T04:14:00.576Z,6
2023-02-12T04:15:00.304Z,6
2023-02-12T04:16:00.156Z,6
2023-02-12T04:16:59.927Z,6
2023-02-12T04:18:01.869Z,6
2023-02-12T04:19:01.117Z,6
2023-02-12T04:20:01.155Z,6
2023-02-12T04:21:01.118Z,6
2023-02-12T04:22:01.746Z,6
2023-02-12T04:23:04.662Z,6
2023-02-12T04:24:01.360Z,6
2023-02-12T04:25:02.063Z,6
2023-02-12T04:26:01.153Z,6
2023-02-12T04:27:01.060Z,6
2023-02-12T04:28:06.437Z,6
2023-02-12T04:29:01.474Z,6
2023-02-12T04:30:02.209Z,6
2023-02-12T04:31:01.252Z,6
2023-02-12T04:32:01.120Z,6
2023-02-12T04:33:09.565Z,6
2023-02-12T04:34:01.120Z,6
2023-02-12T04:35:01.790Z,6
2023-02-12T04:36:01.510Z,6
2023-02-12T04:37:01.129Z,6
2023-02-12T04:38:13.369Z,6
2023-02-12T04:39:01.300Z,6
2023-02-12T04:40:02.063Z,6
2023-02-12T04:41:01.477Z,6
2023-02-12T04:42:01.785Z,6
2023-02-12T04:43:16.305Z,6
2023-02-12T04:44:01.485Z,6
2023-02-12T04:45:03.289Z,6
2023-02-12T04:46:01.146Z,6
2023-02-12T04:47:01.090Z,6
2023-02-12T04:48:01.092Z,6
2023-02-12T04:49:01.271Z,6
2023-02-12T04:50:01.543Z,6
2023-02-12T04:51:02.059Z,6
2023-02-12T04:52:01.158Z,6
2023-02-12T04:53:01.055Z,6
2023-02-12T04:54:01.167Z,6
2023-02-12T04:55:01.059Z,6
2023-02-12T04:56:01.144Z,6
2023-02-12T04:57:01.171Z,6
2023-02-12T04:58:01.165Z,6
2023-02-12T04:59:01.564Z,6
2023-02-12T05:00:01.190Z,6
2023-02-12T05:01:04.059Z,6
2023-02-12T05:02:01.111Z,6
2023-02-12T05:03:01.089Z,6
2023-02-12T05:04:01.078Z,6
2023-02-12T05:05:01.142Z,6
2023-02-12T05:06:01.914Z,6
2023-02-12T05:07:01.542Z,6
2023-02-12T05:08:00.731Z,6
2023-02-12T05:09:00.499Z,6
2023-02-12T05:10:00.130Z,6
2023-02-12T05:10:59.782Z,6
2023-02-12T05:12:01.444Z,6
2023-02-12T05:13:02.079Z,6
2023-02-12T05:14:01.807Z,6
2023-02-12T05:15:01.062Z,5.9
2023-02-12T05:16:00.804Z,5.9
2023-02-12T05:17:00.555Z,6
2023-02-12T05:18:00.256Z,6
2023-02-12T05:18:59.962Z,5.9
2023-02-12T05:19:59.866Z,6
2023-02-12T05:21:00.017Z,6
2023-02-12T05:21:59.808Z,6
2023-02-12T05:23:01.529Z,6
2023-02-12T05:24:01.525Z,6
2023-02-12T05:25:01.194Z,6
2023-02-12T05:26:01.151Z,6
2023-02-12T05:27:01.147Z,5.9
2023-02-12T05:28:01.201Z,6
2023-02-12T05:29:01.540Z,6
2023-02-12T05:30:01.155Z,6
2023-02-12T05:31:01.340Z,6
2023-02-12T05:32:01.448Z,6
2023-02-12T05:33:01.564Z,6
2023-02-12T05:34:01.380Z,6
2023-02-12T05:35:01.086Z,6
2023-02-12T05:36:01.097Z,6
2023-02-12T05:37:01.102Z,6
2023-02-12T05:38:01.372Z,6
2023-02-12T05:39:01.108Z,6
2023-02-12T05:40:01.112Z,6
2023-02-12T05:41:01.123Z,6
2023-02-12T05:42:02.368Z,6
2023-02-12T05:43:01.144Z,6
2023-02-12T05:44:01.081Z,5.9
2023-02-12T05:45:01.060Z,6
2023-02-12T05:46:01.602Z,6
2023-02-12T05:47:01.891Z,6
2023-02-12T05:48:02.390Z,5.9
2023-02-12T05:49:01.721Z,5.9
2023-02-12T05:50:01.204Z,5.9
2023-02-12T05:51:02.041Z,6
2023-02-12T05:52:01.783Z,6
2023-02-12T05:53:01.104Z,5.9
2023-02-12T05:54:01.471Z,5.9
2023-02-12T05:55:01.069Z,5.9
2023-02-12T05:56:03.973Z,5.9
2023-02-12T05:57:01.149Z,5.9
2023-02-12T05:58:01.137Z,5.9
2023-02-12T05:59:01.160Z,5.9
2023-02-12T06:00:02.024Z,5.9
2023-02-12T06:01:04.536Z,5.9
2023-02-12T06:02:01.516Z,6
2023-02-12T06:03:01.552Z,5.9
2023-02-12T06:04:02.145Z,5.9
2023-02-12T06:05:02.096Z,5.9
2023-02-12T06:06:02.192Z,5.9
2023-02-12T06:07:02.887Z,5.9
2023-02-12T06:08:01.108Z,5.9
2023-02-12T06:09:04.069Z,5.9
2023-02-12T06:10:01.548Z,5.9
2023-02-12T06:11:01.070Z,5.9
2023-02-12T06:12:01.110Z,5.9
2023-02-12T06:13:01.136Z,5.9
2023-02-12T06:14:06.067Z,5.9
2023-02-12T06:15:01.559Z,5.9
2023-02-12T06:16:01.588Z,5.9
2023-02-12T06:17:01.169Z,5.9
2023-02-12T06:18:01.153Z,5.9
2023-02-12T06:19:08.434Z,5.9
2023-02-12T06:20:01.162Z,5.9
2023-02-12T06:21:00.972Z,5.9
2023-02-12T06:22:01.068Z,5.9
2023-02-12T06:23:01.101Z,5.9
2023-02-12T06:24:11.522Z,5.9
2023-02-12T06:25:01.329Z,5.9
2023-02-12T06:26:01.108Z,6
2023-02-12T06:27:01.122Z,6
2023-02-12T06:28:02.182Z,6
2023-02-12T06:29:14.225Z,6
2023-02-12T06:30:02.053Z,6
2023-02-12T06:31:01.748Z,6
2023-02-12T06:32:02.881Z,6
2023-02-12T06:33:01.242Z,6
2023-02-12T06:34:01.163Z,6
2023-02-12T06:35:01.192Z,6
2023-02-12T06:36:01.175Z,6
2023-02-12T06:37:01.207Z,6
2023-02-12T06:38:02.571Z,6
2023-02-12T06:39:01.792Z,6
2023-02-12T06:40:01.545Z,6
2023-02-12T06:41:02.511Z,6
2023-02-12T06:42:01.836Z,6
2023-02-12T06:43:02.133Z,6
2023-02-12T06:44:02.575Z,6
2023-02-12T06:45:02.177Z,6
2023-02-12T06:46:01.120Z,6
2023-02-12T06:47:01.296Z,6
2023-02-12T06:48:00.977Z,6
2023-02-12T06:49:00.862Z,6
2023-02-12T06:50:00.636Z,6
2023-02-12T06:51:00.675Z,6
2023-02-12T06:52:03.154Z,6
2023-02-12T06:53:01.568Z,6
2023-02-12T06:54:02.151Z,6
2023-02-12T06:55:01.161Z,6
2023-02-12T06:56:01.903Z,6
2023-02-12T06:57:01.789Z,6
2023-02-12T06:58:01.003Z,6
2023-02-12T06:59:01.006Z,6
2023-02-12T07:00:01.381Z,6
2023-02-12T07:01:01.117Z,6
2023-02-12T07:02:02.241Z,6
2023-02-12T07:03:01.071Z,6
2023-02-12T07:04:03.130Z,6
2023-02-12T07:05:01.935Z,6
2023-02-12T07:06:01.381Z,6
2023-02-12T07:07:02.062Z,6
2023-02-12T07:08:01.178Z,6
2023-02-12T07:09:01.877Z,6
2023-02-12T07:10:01.788Z,6
2023-02-12T07:11:01.077Z,6
2023-02-12T07:12:01.013Z,6
2023-02-12T07:13:01.908Z,6
2023-02-12T07:14:02.012Z,6
2023-02-12T07:15:01.031Z,6
2023-02-12T07:16:01.043Z,6
2023-02-12T07:17:01.862Z,6
2023-02-12T07:18:01.176Z,6
2023-02-12T07:19:01.054Z,6
2023-02-12T07:20:01.450Z,6
2023-02-12T07:21:01.133Z,6
2023-02-12T07:22:01.136Z,6
2023-02-12T07:23:02.296Z,6
2023-02-12T07:24:02.832Z,6
2023-02-12T07:25:01.964Z,6
2023-02-12T07:26:00.977Z,6
2023-02-12T07:27:01.677Z,6.1
2023-02-12T07:28:01.907Z,6.1
2023-02-12T07:29:01.602Z,6
2023-02-12T07:30:00.521Z,6.1
2023-02-12T07:31:00.418Z,6.1
2023-02-12T07:32:00.354Z,6.1
2023-02-12T07:32:59.979Z,6.1
2023-02-12T07:33:59.666Z,6.1
2023-02-12T07:35:01.577Z,6.1
2023-02-12T07:36:01.393Z,6.1
2023-02-12T07:37:01.194Z,6.1
2023-02-12T07:38:01.473Z,6.1
2023-02-12T07:39:01.939Z,6.1
2023-02-12T07:40:01.196Z,6.1
2023-02-12T07:41:00.672Z,6.1
2023-02-12T07:42:00.324Z,6.2
2023-02-12T07:42:59.941Z,6.2
2023-02-12T07:43:59.605Z,6.2
2023-02-12T07:45:01.294Z,6.2
2023-02-12T07:46:02.234Z,6.2
2023-02-12T07:47:01.150Z,6.2
2023-02-12T07:48:02.241Z,6.2
2023-02-12T07:49:01.012Z,6.2
2023-02-12T07:50:02.032Z,6.2
2023-02-12T07:51:01.019Z,6.2
2023-02-12T07:52:00.958Z,6.2
2023-02-12T07:53:01.318Z,6.2
2023-02-12T07:54:00.974Z,6.3
2023-02-12T07:55:03.912Z,6.2
2023-02-12T07:56:00.950Z,6.3
2023-02-12T07:57:00.957Z,6.3
2023-02-12T07:58:01.026Z,6.3
2023-02-12T07:59:01.319Z,6.3
2023-02-12T08:00:06.562Z,6.3
2023-02-12T08:01:01.232Z,6.3
2023-02-12T08:02:02.636Z,6.3
2023-02-12T08:03:01.415Z,6.3
2023-02-12T08:04:01.111Z,6.3
2023-02-12T08:05:09.730Z,6.3
2023-02-12T08:06:01.019Z,6.3
2023-02-12T08:07:01.025Z,6.3
2023-02-12T08:08:01.388Z,6.3
2023-02-12T08:09:00.952Z,6.4
2023-02-12T08:10:11.388Z,6.4
2023-02-12T08:11:01.042Z,6.3
2023-02-12T08:12:01.166Z,6.4
2023-02-12T08:13:01.171Z,6.4
2023-02-12T08:14:01.174Z,6.4
2023-02-12T08:15:14.353Z,6.4
2023-02-12T08:16:01.550Z,6.4
2023-02-12T08:17:01.219Z,6.4
2023-02-12T08:18:01.234Z,6.4
2023-02-12T08:19:15.837Z,6.4
2023-02-12T08:20:16.217Z,6.4
2023-02-12T08:21:01.622Z,6.5
2023-02-12T08:22:01.124Z,6.5
2023-02-12T08:23:01.123Z,6.5
2023-02-12T08:24:01.132Z,6.5
2023-02-12T08:25:01.121Z,6.5
2023-02-12T08:26:01.981Z,6.5
2023-02-12T08:27:01.822Z,6.5
2023-02-12T08:28:01.249Z,6.5
2023-02-12T08:29:03.985Z,6.5
2023-02-12T08:30:01.449Z,6.5
2023-02-12T08:31:01.285Z,6.5
2023-02-12T08:32:01.358Z,6.5
2023-02-12T08:33:02.741Z,6.5
2023-02-12T08:34:01.936Z,6.5
2023-02-12T08:35:01.387Z,6.5
2023-02-12T08:36:01.748Z,6.5
2023-02-12T08:37:01.491Z,6.5
2023-02-12T08:38:02.642Z,6.5
2023-02-12T08:39:02.648Z,6.5
2023-02-12T08:40:01.221Z,6.6
2023-02-12T08:41:00.994Z,6.6
2023-02-12T08:42:01.149Z,6.6
2023-02-12T08:43:01.133Z,6.6
2023-02-12T08:44:01.145Z,6.6
2023-02-12T08:45:01.152Z,6.6
2023-02-12T08:46:01.260Z,6.6
2023-02-12T08:47:01.229Z,6.6
2023-02-12T08:48:01.163Z,6.6
2023-02-12T08:49:01.201Z,6.6
2023-02-12T08:50:01.179Z,6.6
2023-02-12T08:51:01.314Z,6.6
2023-02-12T08:52:01.194Z,6.6
2023-02-12T08:53:01.188Z,6.6
2023-02-12T08:54:01.231Z,6.6
2023-02-12T08:55:01.234Z,6.6
2023-02-12T08:56:01.261Z,6.7
2023-02-12T08:57:01.635Z,6.7
2023-02-12T08:58:00.904Z,6.7
2023-02-12T08:59:00.632Z,6.7
2023-02-12T09:00:00.338Z,6.7
2023-02-12T09:01:00.127Z,6.7
2023-02-12T09:02:00.099Z,6.8
2023-02-12T09:02:59.926Z,6.8
2023-02-12T09:03:59.810Z,6.8
2023-02-12T09:05:01.864Z,6.8
2023-02-12T09:06:01.871Z,6.8
2023-02-12T09:07:01.193Z,6.8
2023-02-12T09:08:01.231Z,6.8
2023-02-12T09:09:03.008Z,6.8
2023-02-12T09:10:01.100Z,6.8
2023-02-12T09:11:01.103Z,6.8
2023-02-12T09:12:01.096Z,6.8
2023-02-12T09:13:01.113Z,6.8
2023-02-12T09:14:01.218Z,6.8
2023-02-12T09:15:01.511Z,6.8
2023-02-12T09:16:01.125Z,6.8
2023-02-12T09:17:01.243Z,6.8
2023-02-12T09:18:02.061Z,6.8
2023-02-12T09:19:01.505Z,6.8
2023-02-12T09:20:01.158Z,6.8
2023-02-12T09:21:01.180Z,6.8
2023-02-12T09:22:02.090Z,6.8
2023-02-12T09:23:01.704Z,6.8
2023-02-12T09:24:01.228Z,6.9
2023-02-12T09:25:01.263Z,6.9
2023-02-12T09:26:01.101Z,6.9
2023-02-12T09:27:01.106Z,6.8
2023-02-12T09:28:01.113Z,6.8
2023-02-12T09:29:01.359Z,6.8
2023-02-12T09:30:02.245Z,6.8
2023-02-12T09:31:01.259Z,6.8
2023-02-12T09:32:04.795Z,6.8
2023-02-12T09:33:01.154Z,6.8
2023-02-12T09:34:01.159Z,6.8
2023-02-12T09:35:01.204Z,6.8
2023-02-12T09:36:01.515Z,6.8
2023-02-12T09:37:01.171Z,6.8
2023-02-12T09:38:01.165Z,6.8
2023-02-12T09:39:01.076Z,6.8
2023-02-12T09:40:01.089Z,6.8
2023-02-12T09:41:01.100Z,6.8
2023-02-12T09:42:00.901Z,6.8
2023-02-12T09:43:01.118Z,6.8
2023-02-12T09:44:01.140Z,6.8
2023-02-12T09:45:01.346Z,6.8
2023-02-12T09:46:01.920Z,6.8
2023-02-12T09:47:01.181Z,6.8
2023-02-12T09:48:01.147Z,6.8
2023-02-12T09:49:01.825Z,6.8
2023-02-12T09:50:01.841Z,6.8
2023-02-12T09:51:04.591Z,6.8
2023-02-12T09:52:01.217Z,6.8
2023-02-12T09:53:01.180Z,6.8
2023-02-12T09:54:01.557Z,6.8
2023-02-12T09:55:01.186Z,6.8
2023-02-12T09:56:07.771Z,6.8
2023-02-12T09:57:08.757Z,6.8
2023-02-12T09:58:01.110Z,6.8
2023-02-12T09:59:01.170Z,6.8
2023-02-12T10:00:01.132Z,6.8
2023-02-12T10:01:09.911Z,6.8
2023-02-12T10:02:00.849Z,6.8
2023-02-12T10:03:01.736Z,6.8
2023-02-12T10:04:02.076Z,6.8
2023-02-12T10:05:02.488Z,6.8
2023-02-12T10:06:10.785Z,6.8
2023-02-12T10:07:01.148Z,6.8
2023-02-12T10:08:01.155Z,6.8
2023-02-12T10:09:01.184Z,6.8
2023-02-12T10:10:01.192Z,6.8
2023-02-12T10:11:13.910Z,6.8
2023-02-12T10:12:01.997Z,6.8
2023-02-12T10:13:01.203Z,6.8
2023-02-12T10:14:01.458Z,6.8
2023-02-12T10:15:01.859Z,6.8
2023-02-12T10:16:01.129Z,6.8
2023-02-12T10:17:01.144Z,6.8
2023-02-12T10:18:01.146Z,6.8
2023-02-12T10:19:01.155Z,6.8
2023-02-12T10:20:01.314Z,6.8
2023-02-12T10:21:01.194Z,6.8
2023-02-12T10:22:01.149Z,6.8
2023-02-12T10:23:01.554Z,6.8
2023-02-12T10:24:01.778Z,6.8
2023-02-12T10:25:02.523Z,6.8
2023-02-12T10:26:02.027Z,6.8
2023-02-12T10:27:01.096Z,6.8
2023-02-12T10:28:01.140Z,6.8
2023-02-12T10:29:01.095Z,6.8
2023-02-12T10:30:01.140Z,6.8
2023-02-12T10:31:01.250Z,6.8
2023-02-12T10:32:01.160Z,6.8
2023-02-12T10:33:01.516Z,6.8
2023-02-12T10:34:02.478Z,6.8
2023-02-12T10:35:01.232Z,6.8
2023-02-12T10:36:01.142Z,6.9
2023-02-12T10:37:01.060Z,6.9
2023-02-12T10:38:01.219Z,6.8
2023-02-12T10:39:01.199Z,6.9
2023-02-12T10:40:01.155Z,6.9
2023-02-12T10:41:01.153Z,6.9
2023-02-12T10:42:01.011Z,6.8
2023-02-12T10:43:01.062Z,6.8
2023-02-12T10:44:01.179Z,6.8
2023-02-12T10:45:01.080Z,6.8
2023-02-12T10:46:01.147Z,6.8
2023-02-12T10:47:01.116Z,6.8
2023-02-12T10:48:01.294Z,6.8
2023-02-12T10:49:01.235Z,6.9
2023-02-12T10:50:01.306Z,6.8
2023-02-12T10:51:01.246Z,6.8
2023-02-12T10:52:01.200Z,6.8
2023-02-12T10:53:01.886Z,6.8
2023-02-12T10:54:01.208Z,6.8
2023-02-12T10:55:01.060Z,6.8
2023-02-12T10:56:01.047Z,6.8
2023-02-12T10:57:01.364Z,6.8
2023-02-12T10:58:04.136Z,6.8
2023-02-12T10:59:02.190Z,6.8
2023-02-12T11:00:02.215Z,6.8
2023-02-12T11:01:02.213Z,6.9
2023-02-12T11:02:01.666Z,6.9
2023-02-12T11:03:01.086Z,7
2023-02-12T11:04:01.090Z,7
2023-02-12T11:05:01.227Z,7
2023-02-12T11:06:01.119Z,7
2023-02-12T11:07:01.248Z,7
2023-02-12T11:08:01.117Z,7.1
2023-02-12T11:09:01.135Z,7.1
2023-02-12T11:10:01.158Z,7.1
2023-02-12T11:11:01.135Z,7.1
2023-02-12T11:12:01.158Z,7.1
2023-02-12T11:13:01.147Z,7.1
2023-02-12T11:14:01.194Z,7.1
2023-02-12T11:15:01.878Z,7.1
2023-02-12T11:16:01.904Z,7.1
2023-02-12T11:17:00.856Z,7.1
2023-02-12T11:18:00.570Z,7.1
2023-02-12T11:19:00.488Z,7.1
2023-02-12T11:20:00.501Z,7.2
2023-02-12T11:21:00.514Z,7.2
2023-02-12T11:22:00.194Z,7.2
2023-02-12T11:22:59.989Z,7.1
2023-02-12T11:23:59.674Z,7.2
2023-02-12T11:25:01.308Z,7.2
2023-02-12T11:26:01.120Z,7.2
2023-02-12T11:27:01.133Z,7.2
2023-02-12T11:28:01.268Z,7.2
2023-02-12T11:29:01.359Z,7.3
2023-02-12T11:30:02.152Z,7.3
2023-02-12T11:31:01.313Z,7.3
2023-02-12T11:32:02.164Z,7.3
2023-02-12T11:33:02.144Z,7.3
2023-02-12T11:34:01.760Z,7.3
2023-02-12T11:35:01.466Z,7.3
2023-02-12T11:36:01.458Z,7.3
2023-02-12T11:37:01.106Z,7.3
2023-02-12T11:38:01.112Z,7.3
2023-02-12T11:39:01.491Z,7.4
2023-02-12T11:40:01.185Z,7.5
2023-02-12T11:41:02.099Z,7.5
2023-02-12T11:42:03.223Z,7.5
2023-02-12T11:43:01.784Z,7.5
2023-02-12T11:44:01.972Z,7.5
2023-02-12T11:45:01.456Z,7.5
2023-02-12T11:46:01.166Z,7.5
2023-02-12T11:47:05.634Z,7.5
2023-02-12T11:48:01.283Z,7.6
2023-02-12T11:49:04.030Z,7.6
2023-02-12T11:50:01.083Z,7.6
2023-02-12T11:51:01.096Z,7.6
2023-02-12T11:52:09.049Z,7.6
2023-02-12T11:53:01.097Z,7.6
2023-02-12T11:54:01.439Z,7.6
2023-02-12T11:55:01.130Z,7.6
2023-02-12T11:56:01.460Z,7.6
2023-02-12T11:57:11.383Z,7.6
2023-02-12T11:58:02.165Z,7.6
2023-02-12T11:59:02.147Z,7.6
2023-02-12T12:00:01.204Z,7.6
2023-02-12T12:01:01.161Z,7.6
2023-02-12T12:02:12.203Z,7.6
2023-02-12T12:03:01.985Z,7.6
2023-02-12T12:04:01.078Z,7.7
2023-02-12T12:05:01.059Z,7.7
2023-02-12T12:06:01.152Z,7.7
2023-02-12T12:07:15.933Z,7.7
2023-02-12T12:08:01.475Z,7.7
2023-02-12T12:09:01.094Z,7.7
2023-02-12T12:10:01.936Z,7.7
2023-02-12T12:11:01.788Z,7.6
2023-02-12T12:12:01.055Z,7.7
2023-02-12T12:13:01.129Z,7.6
2023-02-12T12:14:01.379Z,7.6
2023-02-12T12:15:01.501Z,7.7
2023-02-12T12:16:02.603Z,7.7
2023-02-12T12:17:01.156Z,7.8
2023-02-12T12:18:01.523Z,7.8
2023-02-12T12:19:01.164Z,7.8
2023-02-12T12:20:01.173Z,7.8
2023-02-12T12:21:01.196Z,7.8
2023-02-12T12:22:01.119Z,7.8
2023-02-12T12:23:01.781Z,7.9
2023-02-12T12:24:01.783Z,8
2023-02-12T12:25:01.489Z,8
2023-02-12T12:26:01.109Z,8
2023-02-12T12:27:01.122Z,8
2023-02-12T12:28:01.227Z,8
2023-02-12T12:29:01.117Z,8
2023-02-12T12:30:01.137Z,8
2023-02-12T12:31:01.198Z,8
2023-02-12T12:32:01.244Z,8
2023-02-12T12:33:01.264Z,8
2023-02-12T12:34:01.145Z,7.9
2023-02-12T12:35:01.871Z,8
2023-02-12T12:36:01.075Z,8
2023-02-12T12:37:01.190Z,7.9
2023-02-12T12:38:01.169Z,7.9
2023-02-12T12:39:01.366Z,7.9
2023-02-12T12:40:08.729Z,7.8
2023-02-12T12:41:02.677Z,7.9
2023-02-12T12:42:00.684Z,7.8
2023-02-12T12:43:00.398Z,7.8
2023-02-12T12:43:59.994Z,7.8
2023-02-12T12:44:59.688Z,7.8
2023-02-12T12:46:01.565Z,7.8
2023-02-12T12:47:01.852Z,7.8
2023-02-12T12:48:01.525Z,7.8
2023-02-12T12:49:01.259Z,7.8
2023-02-12T12:50:02.000Z,7.8
2023-02-12T12:51:01.888Z,7.8
2023-02-12T12:52:01.105Z,7.8
2023-02-12T12:53:01.076Z,7.8
2023-02-12T12:54:02.134Z,7.8
2023-02-12T12:55:01.793Z,7.8
2023-02-12T12:56:01.330Z,7.8
2023-02-12T12:57:01.477Z,7.8
2023-02-12T12:58:01.948Z,7.8
2023-02-12T12:59:01.177Z,7.8
2023-02-12T13:00:01.137Z,7.8
2023-02-12T13:01:02.033Z,7.8
2023-02-12T13:02:00.931Z,7.8
2023-02-12T13:03:01.223Z,7.8
2023-02-12T13:04:00.555Z,7.8
2023-02-12T13:05:00.330Z,7.8
2023-02-12T13:06:00.018Z,7.8
2023-02-12T13:06:59.727Z,7.8
2023-02-12T13:08:01.358Z,7.8
2023-02-12T13:09:02.706Z,7.8
2023-02-12T13:10:04.636Z,7.8
2023-02-12T13:11:01.756Z,7.8
2023-02-12T13:12:01.055Z,7.8
2023-02-12T13:13:01.461Z,7.8
2023-02-12T13:14:01.432Z,7.8
2023-02-12T13:15:04.185Z,7.8
2023-02-12T13:16:02.165Z,7.8
2023-02-12T13:17:01.062Z,7.8
2023-02-12T13:18:01.233Z,7.8
2023-02-12T13:19:02.378Z,7.8
2023-02-12T13:20:02.404Z,7.8
2023-02-12T13:21:01.059Z,7.8
2023-02-12T13:22:01.156Z,7.8
2023-02-12T13:23:01.240Z,7.8
2023-02-12T13:24:01.201Z,7.8
2023-02-12T13:25:01.869Z,7.7
2023-02-12T13:26:01.888Z,7.8
2023-02-12T13:27:01.138Z,7.7
2023-02-12T13:28:01.186Z,7.7
2023-02-12T13:29:01.367Z,7.7
2023-02-12T13:30:01.455Z,7.7
2023-02-12T13:31:01.314Z,7.7
2023-02-12T13:32:02.501Z,7.7
2023-02-12T13:33:03.566Z,7.6
2023-02-12T13:34:01.140Z,7.6
2023-02-12T13:35:01.148Z,7.6
2023-02-12T13:36:01.799Z,7.6
2023-02-12T13:37:02.085Z,7.6
2023-02-12T13:38:06.586Z,7.6
2023-02-12T13:39:01.073Z,7.6
2023-02-12T13:40:03.823Z,7.6
2023-02-12T13:41:02.001Z,7.6
2023-02-12T13:42:01.079Z,7.6
2023-02-12T13:43:08.261Z,7.6
2023-02-12T13:44:01.052Z,7.6
2023-02-12T13:45:01.095Z,7.6
2023-02-12T13:46:01.164Z,7.6
2023-02-12T13:47:00.891Z,7.6
2023-02-12T13:48:10.821Z,7.6
2023-02-12T13:49:00.701Z,7.6
2023-02-12T13:50:00.403Z,7.6
2023-02-12T13:51:01.437Z,7.6
2023-02-12T13:52:01.111Z,7.6
2023-02-12T13:53:14.975Z,7.6
2023-02-12T13:54:02.057Z,7.6
2023-02-12T13:55:01.745Z,7.6
2023-02-12T13:56:01.057Z,7.6
2023-02-12T13:57:01.080Z,7.6
2023-02-12T13:58:01.181Z,7.6
2023-02-12T13:59:01.125Z,7.6
2023-02-12T14:00:01.095Z,7.6
2023-02-12T14:01:01.232Z,7.6
2023-02-12T14:02:01.201Z,7.6
2023-02-12T14:03:01.095Z,7.6
2023-02-12T14:04:01.102Z,7.6
2023-02-12T14:05:01.751Z,7.6
2023-02-12T14:06:01.869Z,7.6